createdAt,value
2022-10-14T00:01:42.080Z,54.85
2022-10-14T00:04:10.329Z,54.83
2022-10-14T00:06:40.498Z,54.98
2022-10-14T00:09:11.198Z,54.88
2022-10-14T00:11:39.590Z,54.85
2022-10-14T00:14:11.220Z,54.99
2022-10-14T00:16:41.736Z,54.91
2022-10-14T00:19:10.489Z,55.08
2022-10-14T00:21:43.176Z,54.88
2022-10-14T00:24:13.234Z,55.02
2022-10-14T00:26:43.201Z,55.24
2022-10-14T00:29:14.593Z,55.16
2022-10-14T00:31:43.189Z,55.22
2022-10-14T00:34:13.240Z,55.15
2022-10-14T00:36:43.869Z,55.25
2022-10-14T00:39:13.117Z,55.12
2022-10-14T00:41:44.567Z,55.00
2022-10-14T00:44:46.441Z,55.26
2022-10-14T00:47:14.776Z,55.10
2022-10-14T00:49:46.977Z,54.91
2022-10-14T00:52:19.265Z,55.14
2022-10-14T00:54:52.176Z,55.20
2022-10-14T00:57:23.941Z,55.17
2022-10-14T00:59:54.442Z,55.00
2022-10-14T01:02:22.921Z,55.12
2022-10-14T01:04:52.239Z,55.02
2022-10-14T01:07:37.275Z,54.90
2022-10-14T01:10:14.904Z,55.12
2022-10-14T01:13:02.960Z,55.16
2022-10-14T01:15:40.422Z,55.23
2022-10-14T01:18:21.468Z,55.09
2022-10-14T01:21:18.834Z,55.28
2022-10-14T01:24:49.837Z,55.21
2022-10-14T01:27:55.284Z,55.24
2022-10-14T01:30:26.177Z,55.37
2022-10-14T01:33:08.882Z,55.55
2022-10-14T01:35:48.761Z,55.33
2022-10-14T01:38:22.369Z,55.50
2022-10-14T01:40:56.685Z,55.44
2022-10-14T01:43:27.945Z,55.46
2022-10-14T01:45:59.173Z,55.51
2022-10-14T01:48:33.419Z,55.37
2022-10-14T01:51:07.745Z,55.22
2022-10-14T01:53:40.972Z,55.49
2022-10-14T01:56:12.326Z,55.44
2022-10-14T01:58:41.874Z,55.33
2022-10-14T02:01:11.868Z,55.54
2022-10-14T02:03:42.592Z,55.42
2022-10-14T02:06:17.048Z,55.63
2022-10-14T02:09:03.465Z,55.74
2022-10-14T02:11:40.179Z,55.35
2022-10-14T02:14:20.119Z,55.52
2022-10-14T02:16:59.313Z,55.60
2022-10-14T02:19:34.860Z,55.37
2022-10-14T02:22:09.427Z,55.53
2022-10-14T02:24:42.671Z,55.63
2022-10-14T02:27:15.869Z,55.75
2022-10-14T02:29:47.833Z,55.67
2022-10-14T02:32:20.832Z,55.51
2022-10-14T02:34:52.671Z,55.42
2022-10-14T02:37:23.378Z,55.35
2022-10-14T02:39:58.543Z,55.50
2022-10-14T02:42:27.531Z,55.61
2022-10-14T02:44:57.003Z,55.48
2022-10-14T02:47:27.429Z,55.36
2022-10-14T02:49:56.556Z,55.45
2022-10-14T02:52:26.584Z,55.48
2022-10-14T02:54:54.983Z,55.71
2022-10-14T02:57:23.670Z,55.38
2022-10-14T02:59:51.818Z,56.03
2022-10-14T03:02:20.625Z,56.33
2022-10-14T03:04:50.598Z,56.46
2022-10-14T03:07:18.910Z,56.66
2022-10-14T03:09:47.581Z,56.61
2022-10-14T03:12:15.753Z,56.60
2022-10-14T03:14:43.999Z,56.62
2022-10-14T03:17:12.127Z,56.72
2022-10-14T03:19:40.479Z,56.77
2022-10-14T03:22:11.605Z,56.81
2022-10-14T03:24:39.961Z,56.54
2022-10-14T03:27:08.179Z,56.86
2022-10-14T03:29:37.778Z,56.79
2022-10-14T03:32:06.973Z,56.76
2022-10-14T03:34:35.963Z,56.89
2022-10-14T03:37:08.585Z,56.93
2022-10-14T03:39:38.469Z,56.99
2022-10-14T03:42:06.837Z,57.12
2022-10-14T03:44:35.729Z,57.18
2022-10-14T03:47:04.651Z,57.07
2022-10-14T03:49:36.218Z,57.28
2022-10-14T03:52:06.001Z,57.16
2022-10-14T03:54:35.081Z,57.03
2022-10-14T03:57:05.507Z,56.91
2022-10-14T03:59:37.969Z,57.29
2022-10-14T04:02:06.740Z,56.93
2022-10-14T04:04:36.788Z,56.93
2022-10-14T04:07:04.956Z,57.01
2022-10-14T04:09:34.080Z,57.16
2022-10-14T04:12:03.241Z,57.18
2022-10-14T04:14:33.385Z,57.00
2022-10-14T04:17:01.840Z,57.16
2022-10-14T04:19:30.342Z,57.17
2022-10-14T04:21:58.610Z,57.05
2022-10-14T04:24:27.061Z,57.12
2022-10-14T04:26:55.794Z,57.04
2022-10-14T04:29:24.069Z,56.94
2022-10-14T04:31:53.760Z,57.00
2022-10-14T04:34:22.050Z,56.83
2022-10-14T04:36:50.408Z,57.09
2022-10-14T04:39:19.097Z,56.97
2022-10-14T04:41:47.531Z,57.01
2022-10-14T04:44:15.958Z,56.86
2022-10-14T04:46:44.749Z,56.72
2022-10-14T04:49:16.625Z,56.98
2022-10-14T04:51:45.239Z,56.99
2022-10-14T04:54:13.503Z,56.99
2022-10-14T04:56:41.745Z,57.03
2022-10-14T04:59:10.190Z,56.96
2022-10-14T05:01:39.501Z,56.82
2022-10-14T05:04:08.114Z,57.00
2022-10-14T05:06:41.274Z,56.87
2022-10-14T05:09:11.071Z,56.79
2022-10-14T05:11:40.517Z,56.96
2022-10-14T05:14:10.541Z,57.01
2022-10-14T05:16:40.356Z,57.20
2022-10-14T05:19:12.123Z,56.86
2022-10-14T05:21:42.861Z,56.56
2022-10-14T05:24:11.653Z,56.66
2022-10-14T05:26:40.262Z,57.07
2022-10-14T05:29:13.631Z,56.88
2022-10-14T05:31:41.990Z,56.88
2022-10-14T05:34:11.802Z,56.88
2022-10-14T05:36:47.269Z,57.00
2022-10-14T05:39:23.979Z,57.11
2022-10-14T06:48:12.655Z,57.35
2022-10-14T06:50:41.415Z,57.79
2022-10-14T06:53:16.467Z,58.02
2022-10-14T06:58:35.942Z,57.72
2022-10-14T07:01:15.427Z,57.80
2022-10-14T07:03:46.016Z,57.70
2022-10-14T07:06:32.223Z,57.75
2022-10-14T07:09:06.934Z,57.68
2022-10-14T07:11:55.386Z,57.79
2022-10-14T07:39:15.294Z,57.79
2022-10-14T07:41:54.630Z,57.69
2022-10-14T07:44:31.266Z,57.71
2022-10-14T07:47:06.550Z,57.44
2022-10-14T07:49:37.484Z,57.75
2022-10-14T07:52:07.599Z,57.86
2022-10-14T07:54:39.885Z,57.95
2022-10-14T07:57:18.188Z,57.95
2022-10-14T08:00:02.896Z,57.93
2022-10-14T08:02:31.718Z,57.80
2022-10-14T08:05:25.450Z,57.88
2022-10-14T08:07:52.983Z,58.02
2022-10-14T08:10:24.062Z,58.22
2022-10-14T08:13:04.347Z,57.98
2022-10-14T08:15:43.914Z,57.88
2022-10-14T08:18:13.312Z,58.06
2022-10-14T08:20:54.783Z,57.90
2022-10-14T08:23:53.481Z,57.86
2022-10-14T08:33:55.035Z,57.43
2022-10-14T08:36:26.093Z,57.45
2022-10-14T08:42:29.705Z,57.39
2022-10-14T08:45:08.951Z,57.61
2022-10-14T08:47:41.144Z,57.44
2022-10-14T08:50:23.358Z,57.77
2022-10-14T08:53:10.788Z,57.59
2022-10-14T08:55:43.266Z,57.63
2022-10-14T08:58:22.275Z,57.54
2022-10-14T09:00:53.469Z,57.36
2022-10-14T09:03:24.436Z,57.22
2022-10-14T09:06:03.301Z,57.23
2022-10-14T09:08:42.353Z,57.36
2022-10-14T09:11:18.805Z,57.41
2022-10-14T09:13:50.530Z,57.32
2022-10-14T09:16:24.637Z,57.54
2022-10-14T09:18:59.478Z,57.34
2022-10-14T09:24:29.931Z,57.51
2022-10-14T09:27:02.696Z,57.33
2022-10-14T09:29:36.501Z,57.28
2022-10-14T09:32:07.343Z,57.02
2022-10-14T09:34:38.438Z,56.94
2022-10-14T09:37:28.985Z,56.95
2022-10-14T09:40:04.838Z,56.82
2022-10-14T09:42:49.003Z,56.98
2022-10-14T09:45:22.826Z,57.07
2022-10-14T09:47:57.659Z,56.96
2022-10-14T09:50:29.132Z,57.10
2022-10-14T09:53:04.324Z,57.36
2022-10-14T09:55:34.332Z,57.05
2022-10-14T09:58:07.163Z,57.13
2022-10-14T10:00:38.142Z,56.95
2022-10-14T10:03:07.896Z,56.83
2022-10-14T10:05:48.956Z,56.99
2022-10-14T10:08:21.017Z,56.89
2022-10-14T10:11:03.762Z,56.90
2022-10-14T10:13:44.014Z,57.04
2022-10-14T10:16:25.330Z,56.97
2022-10-14T10:18:55.900Z,56.78
2022-10-14T10:21:26.536Z,56.29
2022-10-14T10:23:58.786Z,56.12
2022-10-14T10:26:31.465Z,56.46
2022-10-14T10:29:00.605Z,55.67
2022-10-14T10:31:45.254Z,55.84
2022-10-14T10:34:45.963Z,55.47
2022-10-14T10:37:26.289Z,55.35
2022-10-14T10:40:09.792Z,55.09
2022-10-14T10:42:49.694Z,54.63
2022-10-14T10:45:39.125Z,55.24
2022-10-14T10:48:15.276Z,54.79
2022-10-14T10:50:56.469Z,53.83
2022-10-14T10:53:45.770Z,53.74
2022-10-14T10:56:33.853Z,53.20
2022-10-14T10:59:22.334Z,53.41
2022-10-14T11:01:58.229Z,53.28
2022-10-14T11:04:33.199Z,53.36
2022-10-14T11:07:35.807Z,53.37
2022-10-14T11:10:35.447Z,53.16
2022-10-14T11:13:11.315Z,53.03
2022-10-14T11:15:48.600Z,52.76
2022-10-14T11:18:30.895Z,52.37
2022-10-14T11:21:10.502Z,51.82
2022-10-14T11:23:49.916Z,52.22
2022-10-14T11:26:45.807Z,52.32
2022-10-14T11:29:28.603Z,51.92
2022-10-14T11:32:05.315Z,51.78
2022-10-14T11:34:44.220Z,51.67
2022-10-14T11:37:26.576Z,51.91
2022-10-14T11:39:59.690Z,51.59
2022-10-14T11:42:36.105Z,51.58
2022-10-14T11:45:44.109Z,51.23
2022-10-14T11:48:29.183Z,50.85
2022-10-14T11:51:02.936Z,51.02
2022-10-14T11:53:47.103Z,50.81
2022-10-14T11:56:29.686Z,50.61
2022-10-14T11:59:03.457Z,51.14
2022-10-14T12:01:40.292Z,51.02
2022-10-14T12:04:17.837Z,50.41
2022-10-14T12:06:56.957Z,50.18
2022-10-14T12:09:29.500Z,50.06
2022-10-14T12:12:01.346Z,50.29
2022-10-14T12:14:35.214Z,49.88
2022-10-14T12:17:07.943Z,49.62
2022-10-14T12:19:37.722Z,50.17
2022-10-14T12:22:17.080Z,50.63
2022-10-14T12:24:50.844Z,50.81
2022-10-14T12:27:21.499Z,50.41
2022-10-14T12:29:51.378Z,50.41
2022-10-14T12:32:24.729Z,50.23
2022-10-14T12:34:57.459Z,49.22
2022-10-14T12:37:54.446Z,48.68
2022-10-14T12:40:30.885Z,49.21
2022-10-14T12:43:06.423Z,49.24
2022-10-14T12:45:37.383Z,48.91
2022-10-14T12:48:15.935Z,48.86
2022-10-14T12:50:46.874Z,49.09
2022-10-14T12:53:23.978Z,49.76
2022-10-14T12:55:55.399Z,49.18
2022-10-14T12:58:30.497Z,48.97
2022-10-14T13:01:03.474Z,49.50
2022-10-14T13:03:38.485Z,49.30
2022-10-14T13:06:33.568Z,48.87
2022-10-14T13:09:21.144Z,48.59
2022-10-14T13:12:28.272Z,47.80
2022-10-14T13:15:01.856Z,47.92
2022-10-14T13:17:44.110Z,47.82
2022-10-14T13:20:53.833Z,48.26
2022-10-14T13:23:33.175Z,48.54
2022-10-14T13:26:12.189Z,48.50
2022-10-14T13:28:46.408Z,48.53
2022-10-14T13:31:20.862Z,48.53
2022-10-14T13:33:55.616Z,48.54
2022-10-14T13:36:35.707Z,48.34
2022-10-14T13:39:05.218Z,47.88
2022-10-14T13:41:34.781Z,48.03
2022-10-14T13:44:03.864Z,48.19
2022-10-14T13:46:37.250Z,47.72
2022-10-14T13:49:08.757Z,47.83
2022-10-14T13:51:46.376Z,47.87
2022-10-14T13:54:21.073Z,47.36
2022-10-14T14:02:39.997Z,47.35
2022-10-14T14:05:15.656Z,46.79
2022-10-14T14:10:42.501Z,46.40
2022-10-14T14:13:14.587Z,47.14
2022-10-14T14:15:43.608Z,47.84
2022-10-14T14:18:33.952Z,47.80
2022-10-14T14:21:14.332Z,47.81
2022-10-14T14:23:52.999Z,47.97
2022-10-14T14:26:22.727Z,47.80
2022-10-14T14:28:52.284Z,48.34
2022-10-14T14:31:30.335Z,48.63
2022-10-14T14:34:06.586Z,48.28
2022-10-14T14:36:50.704Z,48.41
2022-10-14T14:39:26.006Z,47.50
2022-10-14T14:41:56.606Z,45.91
2022-10-14T14:44:29.251Z,44.66
2022-10-14T14:47:00.543Z,44.21
2022-10-14T14:49:32.191Z,43.66
2022-10-14T14:52:02.322Z,43.87
2022-10-14T14:54:32.323Z,44.40
2022-10-14T14:57:06.055Z,44.76
2022-10-14T14:59:37.994Z,45.48
2022-10-14T15:02:16.335Z,46.47
2022-10-14T15:04:44.860Z,46.92
2022-10-14T15:07:21.317Z,47.04
2022-10-14T15:09:58.615Z,46.68
2022-10-14T15:12:39.326Z,46.56
2022-10-14T15:15:32.281Z,46.22
2022-10-14T15:18:13.871Z,45.74
2022-10-14T15:20:43.493Z,45.31
2022-10-14T15:23:41.095Z,45.81
2022-10-14T15:26:27.193Z,45.85
2022-10-14T15:29:07.786Z,45.93
2022-10-14T15:31:37.885Z,46.13
2022-10-14T15:34:07.153Z,46.03
2022-10-14T15:36:36.240Z,46.01
2022-10-14T15:39:04.709Z,46.35
2022-10-14T15:41:35.096Z,46.37
2022-10-14T15:44:03.368Z,46.65
2022-10-14T15:46:49.136Z,47.07
2022-10-14T15:49:21.925Z,47.15
2022-10-14T15:51:50.183Z,46.88
2022-10-14T15:54:18.308Z,46.74
2022-10-14T15:56:49.369Z,46.71
2022-10-14T15:59:19.312Z,46.88
2022-10-14T16:01:54.194Z,46.68
2022-10-14T16:04:24.796Z,46.74
2022-10-14T16:06:55.368Z,47.10
2022-10-14T16:09:27.785Z,47.21
2022-10-14T16:12:00.769Z,47.58
2022-10-14T16:14:29.618Z,47.85
2022-10-14T16:16:58.000Z,47.83
2022-10-14T16:19:27.028Z,47.95
2022-10-14T16:21:55.459Z,47.35
2022-10-14T16:24:26.240Z,47.72
2022-10-14T16:26:56.754Z,47.74
2022-10-14T16:29:28.633Z,47.14
2022-10-14T16:31:59.534Z,46.50
2022-10-14T16:34:28.898Z,46.18
2022-10-14T16:36:57.836Z,45.88
2022-10-14T16:39:26.085Z,46.01
2022-10-14T16:41:55.925Z,45.93
2022-10-14T16:44:28.038Z,46.01
2022-10-14T16:47:15.467Z,46.00
2022-10-14T16:49:45.293Z,46.17
2022-10-14T16:52:13.679Z,46.27
2022-10-14T16:54:42.216Z,46.17
2022-10-14T16:57:10.369Z,46.79
2022-10-14T16:59:40.645Z,46.04
2022-10-14T17:02:11.168Z,46.56
2022-10-14T17:04:41.255Z,46.63
2022-10-14T17:07:09.552Z,46.88
2022-10-14T17:09:41.563Z,47.00
2022-10-14T17:12:13.857Z,47.34
2022-10-14T17:14:50.926Z,47.58
2022-10-14T17:17:24.355Z,47.86
2022-10-14T17:19:54.014Z,48.42
2022-10-14T17:22:23.089Z,48.52
2022-10-14T17:24:52.120Z,48.82
2022-10-14T17:27:24.221Z,48.89
2022-10-14T17:29:54.471Z,49.10
2022-10-14T17:32:23.173Z,49.22
2022-10-14T17:34:53.486Z,49.48
2022-10-14T17:37:22.969Z,49.54
2022-10-14T17:39:51.166Z,49.83
2022-10-14T17:42:19.617Z,49.92
2022-10-14T17:44:49.619Z,50.14
2022-10-14T17:47:20.131Z,50.25
2022-10-14T17:49:50.732Z,50.70
2022-10-14T17:52:21.578Z,50.58
2022-10-14T17:54:52.084Z,50.75
2022-10-14T17:57:33.121Z,50.97
2022-10-14T18:02:58.553Z,51.15
2022-10-14T18:05:26.974Z,51.46
2022-10-14T18:07:56.136Z,51.45
2022-10-14T18:10:26.397Z,51.34
2022-10-14T18:12:55.291Z,51.40
2022-10-14T18:15:23.754Z,51.30
2022-10-14T18:17:54.108Z,51.44
2022-10-14T18:20:25.171Z,51.57
2022-10-14T18:22:54.337Z,51.35
2022-10-14T18:25:22.608Z,51.49
2022-10-14T18:27:54.569Z,51.47
2022-10-14T18:30:22.680Z,51.50
2022-10-14T18:32:50.828Z,51.41
2022-10-14T18:35:19.031Z,51.52
2022-10-14T18:37:49.421Z,51.34
2022-10-14T18:40:18.522Z,51.56
2022-10-14T18:42:46.745Z,51.39
2022-10-14T18:45:15.479Z,51.56
2022-10-14T18:47:43.570Z,52.03
2022-10-14T18:50:11.830Z,51.93
2022-10-14T18:52:40.126Z,51.93
2022-10-14T18:55:10.836Z,52.18
2022-10-14T18:57:39.177Z,52.20
2022-10-14T19:00:13.487Z,52.24
2022-10-14T19:02:42.579Z,52.29
2022-10-14T19:05:10.996Z,52.26
2022-10-14T19:07:39.275Z,52.25
2022-10-14T19:10:11.116Z,52.29
2022-10-14T19:12:42.496Z,52.24
2022-10-14T19:15:12.096Z,52.32
2022-10-14T19:17:42.917Z,52.16
2022-10-14T19:20:11.301Z,52.39
2022-10-14T19:22:44.873Z,52.58
2022-10-14T19:25:16.544Z,52.32
2022-10-14T19:27:44.736Z,52.41
2022-10-14T19:30:13.515Z,52.50
2022-10-14T19:32:41.796Z,52.57
2022-10-14T19:35:10.019Z,52.61
2022-10-14T19:37:38.130Z,52.50
2022-10-14T19:40:27.446Z,52.79
2022-10-14T19:42:56.963Z,52.64
2022-10-14T19:45:25.398Z,52.90
2022-10-14T19:47:53.570Z,52.67
2022-10-14T19:50:21.792Z,52.79
2022-10-14T19:52:49.837Z,52.90
2022-10-14T19:55:18.110Z,52.81
2022-10-14T19:57:46.167Z,52.73
2022-10-14T20:00:16.788Z,52.94
2022-10-14T20:02:45.811Z,52.97
2022-10-14T20:05:13.870Z,53.01
2022-10-14T20:07:41.975Z,53.01
2022-10-14T20:10:12.189Z,53.05
2022-10-14T20:12:40.461Z,53.21
2022-10-14T20:15:10.110Z,53.06
2022-10-14T20:17:39.759Z,53.10
2022-10-14T20:20:09.073Z,53.19
2022-10-14T20:22:37.237Z,53.11
2022-10-14T20:25:05.823Z,53.50
2022-10-14T20:27:34.126Z,53.15
2022-10-14T20:30:02.259Z,53.30
2022-10-14T20:32:30.530Z,53.35
2022-10-14T20:35:00.052Z,53.53
2022-10-14T20:37:28.381Z,53.46
2022-10-14T20:39:56.520Z,53.58
2022-10-14T20:42:24.788Z,53.70
2022-10-14T20:44:52.932Z,53.49
2022-10-14T20:47:21.493Z,53.63
2022-10-14T20:49:49.842Z,53.73
2022-10-14T20:52:19.382Z,53.84
2022-10-14T20:54:47.579Z,53.59
2022-10-14T20:57:15.790Z,53.72
2022-10-14T20:59:43.942Z,53.92
2022-10-14T21:02:17.313Z,53.89
2022-10-14T21:04:48.461Z,53.82
2022-10-14T21:07:20.160Z,54.04
2022-10-14T21:09:49.313Z,53.76
2022-10-14T21:12:17.615Z,53.49
2022-10-14T21:14:45.875Z,53.78
2022-10-14T21:17:14.211Z,54.05
2022-10-14T21:19:43.750Z,53.92
2022-10-14T21:22:12.802Z,53.88
2022-10-14T21:24:43.481Z,54.00
2022-10-14T21:27:11.649Z,53.79
2022-10-14T21:29:40.563Z,54.16
2022-10-14T21:32:09.150Z,54.03
2022-10-14T21:34:37.328Z,53.96
2022-10-14T21:37:06.509Z,53.94
2022-10-14T21:39:34.877Z,53.61
2022-10-14T21:42:04.890Z,53.80
2022-10-14T21:44:33.478Z,53.93
2022-10-14T21:47:01.989Z,53.80
2022-10-14T21:49:30.482Z,53.69
2022-10-14T21:51:58.955Z,53.78
2022-10-14T21:54:27.894Z,53.76
2022-10-14T21:59:27.559Z,53.91
2022-10-14T22:01:59.095Z,53.86
2022-10-14T22:04:28.359Z,53.80
2022-10-14T22:06:56.709Z,53.86
2022-10-14T22:09:26.039Z,54.00
2022-10-14T22:11:55.175Z,53.89
2022-10-14T22:14:23.382Z,53.98
2022-10-14T22:16:54.641Z,53.86
2022-10-14T22:19:24.831Z,53.96
2022-10-14T22:21:59.454Z,53.72
2022-10-14T22:24:32.825Z,53.68
2022-10-14T22:27:01.930Z,53.69
2022-10-14T22:29:31.435Z,53.69
2022-10-14T22:32:03.248Z,53.76
2022-10-14T22:34:33.088Z,53.94
2022-10-14T22:37:01.893Z,54.05
2022-10-14T22:39:30.507Z,53.55
2022-10-14T22:41:58.751Z,53.74
2022-10-14T22:44:26.931Z,53.83
2022-10-14T22:46:55.520Z,53.70
2022-10-14T22:49:25.575Z,53.90
2022-10-14T22:51:58.423Z,53.86
2022-10-14T22:54:28.437Z,54.04
2022-10-14T22:57:00.360Z,54.08
2022-10-14T22:59:28.861Z,54.24
2022-10-14T23:01:58.072Z,54.48
2022-10-14T23:04:29.416Z,54.58
2022-10-14T23:07:06.986Z,54.42
2022-10-14T23:09:39.423Z,54.49
2022-10-14T23:12:15.184Z,54.59
2022-10-14T23:14:43.716Z,54.66
2022-10-14T23:17:12.812Z,54.68
2022-10-14T23:19:45.283Z,54.88
2022-10-14T23:22:13.743Z,55.29
2022-10-14T23:24:41.839Z,55.52
2022-10-14T23:27:10.062Z,55.76
2022-10-14T23:29:38.305Z,55.71
2022-10-14T23:32:09.612Z,55.84
2022-10-14T23:34:37.870Z,56.05
2022-10-14T23:37:07.576Z,56.26
2022-10-14T23:39:36.086Z,56.27
2022-10-14T23:42:04.563Z,56.55
2022-10-14T23:44:36.023Z,56.50
2022-10-14T23:47:04.748Z,56.45
2022-10-14T23:49:33.213Z,56.65
2022-10-14T23:52:09.813Z,56.92
2022-10-14T23:54:39.870Z,57.24
2022-10-14T23:57:09.225Z,57.62
2022-10-14T23:59:38.506Z,57.61
